createdAt,value
2019-06-07T00:00:04.169Z,0.00
2019-06-07T00:01:03.959Z,0.00
2019-06-07T00:02:03.940Z,0.00
2019-06-07T00:03:03.953Z,0.00
2019-06-07T00:04:03.919Z,0.00
2019-06-07T00:05:03.930Z,0.00
2019-06-07T00:06:03.910Z,0.00
2019-06-07T00:07:03.905Z,0.00
2019-06-07T00:08:07.696Z,0.00
2019-06-07T00:09:04.860Z,0.00
2019-06-07T00:10:03.871Z,0.00
2019-06-07T00:11:03.911Z,0.00
2019-06-07T00:12:03.831Z,0.00
2019-06-07T00:13:03.824Z,0.00
2019-06-07T00:14:03.822Z,0.00
2019-06-07T00:15:03.800Z,0.00
2019-06-07T00:16:03.812Z,0.00
2019-06-07T00:17:03.790Z,0.00
2019-06-07T00:18:03.771Z,0.00
2019-06-07T00:19:03.749Z,0.00
2019-06-07T00:20:03.752Z,0.00
2019-06-07T00:21:03.750Z,0.00
2019-06-07T00:22:17.751Z,0.00
2019-06-07T00:23:04.703Z,0.00
2019-06-07T00:24:03.692Z,0.00
2019-06-07T00:25:03.689Z,0.00
2019-06-07T00:26:03.699Z,0.00
2019-06-07T00:27:03.710Z,0.00
2019-06-07T00:28:03.671Z,0.00
2019-06-07T00:29:03.749Z,0.00
2019-06-07T00:30:29.551Z,0.00
2019-06-07T00:31:04.640Z,0.00
2019-06-07T00:32:03.640Z,0.00
2019-06-07T00:33:03.610Z,0.00
2019-06-07T00:34:03.589Z,0.00
2019-06-07T00:35:03.569Z,0.00
2019-06-07T00:36:03.570Z,0.00
2019-06-07T00:37:03.740Z,0.00
2019-06-07T00:38:03.564Z,0.00
2019-06-07T00:39:03.557Z,0.00
2019-06-07T00:40:14.131Z,0.00
2019-06-07T00:41:04.509Z,0.00
2019-06-07T00:42:03.522Z,0.00
2019-06-07T00:43:03.522Z,0.00
2019-06-07T00:44:03.510Z,0.00
2019-06-07T00:45:03.499Z,0.00
2019-06-07T00:46:03.462Z,0.00
2019-06-07T00:47:03.440Z,0.00
2019-06-07T00:48:03.501Z,0.00
2019-06-07T00:49:03.435Z,0.00
2019-06-07T00:50:03.401Z,0.00
2019-06-07T00:51:03.403Z,0.00
2019-06-07T00:52:03.390Z,0.00
2019-06-07T00:53:29.173Z,0.00
2019-06-07T00:54:04.369Z,0.00
2019-06-07T00:55:03.374Z,0.00
2019-06-07T00:56:03.356Z,0.00
2019-06-07T00:57:03.330Z,0.00
2019-06-07T00:58:03.334Z,0.00
2019-06-07T00:59:11.459Z,0.00
2019-06-07T01:00:04.344Z,0.00
2019-06-07T01:01:03.294Z,0.00
2019-06-07T01:02:03.330Z,0.00
2019-06-07T01:03:03.295Z,0.00
2019-06-07T01:04:03.252Z,0.00
2019-06-07T01:05:03.242Z,0.00
2019-06-07T01:06:03.234Z,0.00
2019-06-07T01:07:03.233Z,0.00
2019-06-07T01:08:03.943Z,0.00
2019-06-07T01:09:03.199Z,0.00
2019-06-07T01:10:03.191Z,0.00
2019-06-07T01:11:03.211Z,0.00
2019-06-07T01:12:03.176Z,0.00
2019-06-07T01:13:04.008Z,0.00
2019-06-07T01:14:03.151Z,0.00
2019-06-07T01:15:03.151Z,0.00
2019-06-07T01:16:03.146Z,0.00
2019-06-07T01:17:22.446Z,0.00
2019-06-07T01:19:04.120Z,0.00
2019-06-07T01:20:03.091Z,0.00
2019-06-07T01:21:03.093Z,0.00
2019-06-07T01:22:03.135Z,0.00
2019-06-07T01:23:03.059Z,0.00
2019-06-07T01:24:11.847Z,0.00
2019-06-07T01:25:04.020Z,0.00
2019-06-07T01:26:03.019Z,0.00
2019-06-07T01:27:03.012Z,0.00
2019-06-07T01:28:03.031Z,0.00
2019-06-07T01:29:03.001Z,0.00
2019-06-07T01:30:02.961Z,0.00
2019-06-07T01:31:02.959Z,0.00
2019-06-07T01:32:02.949Z,0.00
2019-06-07T01:33:02.932Z,0.00
2019-06-07T01:34:02.943Z,0.00
2019-06-07T01:35:02.912Z,0.00
2019-06-07T01:36:02.975Z,0.00
2019-06-07T01:37:02.888Z,0.00
2019-06-07T01:38:02.893Z,0.00
2019-06-07T01:39:02.889Z,0.00
2019-06-07T01:40:02.870Z,0.00
2019-06-07T01:41:02.850Z,0.00
2019-06-07T01:42:02.853Z,0.00
2019-06-07T01:43:02.834Z,0.00
2019-06-07T01:44:02.864Z,0.00
2019-06-07T01:45:03.118Z,0.00
2019-06-07T01:46:02.791Z,0.00
2019-06-07T01:47:02.784Z,0.00
2019-06-07T01:48:02.822Z,0.00
2019-06-07T01:49:02.777Z,0.00
2019-06-07T01:50:02.761Z,0.00
2019-06-07T01:51:02.740Z,0.00
2019-06-07T01:52:02.721Z,0.00
2019-06-07T01:53:02.728Z,0.00
2019-06-07T01:54:48.789Z,0.00
2019-06-07T01:55:03.691Z,0.00
2019-06-07T01:56:02.723Z,0.00
2019-06-07T01:57:02.674Z,0.00
2019-06-07T01:58:02.710Z,0.00
2019-06-07T01:59:02.670Z,0.00
2019-06-07T02:00:02.631Z,0.00
2019-06-07T02:01:02.633Z,0.00
2019-06-07T02:02:02.612Z,0.00
2019-06-07T02:03:02.616Z,0.00
2019-06-07T02:04:03.326Z,0.00
2019-06-07T02:05:02.582Z,0.00
2019-06-07T02:06:02.580Z,0.00
2019-06-07T02:07:02.572Z,0.00
2019-06-07T02:08:02.550Z,0.00
2019-06-07T02:09:02.850Z,0.00
2019-06-07T02:10:02.541Z,0.00
2019-06-07T02:11:02.522Z,0.00
2019-06-07T02:12:02.501Z,0.00
2019-06-07T02:13:02.503Z,0.00
2019-06-07T02:14:02.480Z,0.00
2019-06-07T02:15:03.450Z,0.00
2019-06-07T02:16:02.550Z,0.00
2019-06-07T02:17:02.538Z,0.00
2019-06-07T02:18:02.497Z,0.00
2019-06-07T02:19:03.961Z,0.00
2019-06-07T02:20:02.446Z,0.00
2019-06-07T02:21:02.420Z,0.00
2019-06-07T02:22:02.476Z,0.00
2019-06-07T02:23:02.381Z,0.00
2019-06-07T02:24:02.385Z,0.00
2019-06-07T02:25:35.065Z,0.00
2019-06-07T02:26:03.361Z,0.00
2019-06-07T02:27:02.379Z,0.00
2019-06-07T02:28:26.441Z,0.00
2019-06-07T02:29:03.329Z,0.00
2019-06-07T02:30:35.118Z,0.00
2019-06-07T02:31:03.323Z,0.00
2019-06-07T02:32:02.283Z,0.00
2019-06-07T02:33:02.321Z,0.00
2019-06-07T02:34:02.280Z,0.00
2019-06-07T02:35:02.278Z,0.00
2019-06-07T02:36:02.297Z,0.00
2019-06-07T02:37:02.256Z,0.00
2019-06-07T02:38:02.224Z,0.00
2019-06-07T02:39:02.292Z,0.00
2019-06-07T02:40:02.203Z,0.00
2019-06-07T02:41:02.191Z,0.00
2019-06-07T02:42:03.190Z,4.00
2019-06-07T02:43:02.167Z,4.00
2019-06-07T02:44:02.152Z,4.00
2019-06-07T02:45:02.161Z,0.00
2019-06-07T02:46:24.011Z,4.00
2019-06-07T02:47:03.148Z,4.00
2019-06-07T02:48:02.127Z,4.00
2019-06-07T02:49:02.111Z,8.00
2019-06-07T02:50:02.090Z,4.00
2019-06-07T02:51:02.100Z,8.00
2019-06-07T02:52:02.139Z,8.00
2019-06-07T02:53:02.061Z,8.00
2019-06-07T02:54:02.042Z,8.00
2019-06-07T02:55:02.042Z,16.00
2019-06-07T02:57:03.064Z,16.00
2019-06-07T02:58:02.015Z,20.00
2019-06-07T02:59:01.992Z,24.00
2019-06-07T03:00:17.018Z,24.00
2019-06-07T03:01:09.087Z,28.00
2019-06-07T03:02:03.046Z,32.00
2019-06-07T03:03:01.963Z,36.00
2019-06-07T03:04:02.034Z,40.00
2019-06-07T03:05:01.955Z,44.00
2019-06-07T03:06:01.918Z,52.00
2019-06-07T03:07:01.920Z,56.00
2019-06-07T03:08:01.900Z,60.00
2019-06-07T03:09:01.883Z,68.00
2019-06-07T03:10:01.960Z,76.00
2019-06-07T03:11:01.871Z,84.00
2019-06-07T03:12:01.872Z,92.00
2019-06-07T03:13:01.831Z,100.00
2019-06-07T03:14:01.820Z,112.00
2019-06-07T03:15:01.831Z,120.00
2019-06-07T03:16:01.811Z,132.00
2019-06-07T03:17:01.810Z,144.00
2019-06-07T03:18:01.784Z,156.00
2019-06-07T03:19:01.769Z,164.00
2019-06-07T03:20:01.770Z,176.00
2019-06-07T03:21:05.369Z,192.00
2019-06-07T03:22:01.760Z,208.00
2019-06-07T03:23:01.743Z,220.00
2019-06-07T03:24:01.710Z,236.00
2019-06-07T03:25:01.708Z,256.00
2019-06-07T03:26:01.691Z,276.00
2019-06-07T03:28:02.670Z,320.00
2019-06-07T03:29:01.667Z,344.00
2019-06-07T03:30:35.202Z,372.00
2019-06-07T03:31:03.373Z,400.00
2019-06-07T03:32:01.659Z,436.00
2019-06-07T03:33:01.641Z,464.00
2019-06-07T03:34:01.603Z,488.00
2019-06-07T03:35:01.600Z,504.00
2019-06-07T03:36:22.743Z,528.00
2019-06-07T03:37:02.590Z,560.00
2019-06-07T03:38:01.683Z,588.00
2019-06-07T03:39:01.550Z,624.00
2019-06-07T03:40:01.609Z,648.00
2019-06-07T03:41:01.531Z,672.00
2019-06-07T03:42:06.428Z,700.00
2019-06-07T03:43:02.521Z,716.00
2019-06-07T03:44:01.500Z,744.00
2019-06-07T03:45:01.496Z,764.00
2019-06-07T03:46:01.470Z,780.00
2019-06-07T03:47:01.471Z,796.00
2019-06-07T03:48:01.483Z,816.00
2019-06-07T03:49:01.435Z,844.00
2019-06-07T03:50:01.432Z,884.00
2019-06-07T03:51:04.961Z,924.00
2019-06-07T03:52:02.408Z,940.00
2019-06-07T03:53:01.469Z,948.00
2019-06-07T03:54:01.402Z,964.00
2019-06-07T03:55:01.369Z,988.00
2019-06-07T03:56:01.558Z,1020.00
2019-06-07T03:57:01.350Z,1036.00
2019-06-07T03:58:30.768Z,1056.00
2019-06-07T03:59:02.330Z,1076.00
2019-06-07T04:00:01.320Z,1092.00
2019-06-07T04:01:02.166Z,1104.00
2019-06-07T04:02:01.310Z,1120.00
2019-06-07T04:03:01.300Z,1128.00
2019-06-07T04:04:01.279Z,1144.00
2019-06-07T04:05:01.261Z,1164.00
2019-06-07T04:06:01.253Z,1184.00
2019-06-07T04:07:01.314Z,1208.00
2019-06-07T04:08:01.252Z,1232.00
2019-06-07T04:09:01.261Z,1252.00
2019-06-07T04:10:01.199Z,1276.00
2019-06-07T04:11:01.256Z,1304.00
2019-06-07T04:12:01.962Z,1336.00
2019-06-07T04:13:01.188Z,1364.00
2019-06-07T04:14:01.208Z,1400.00
2019-06-07T04:15:01.160Z,1428.00
2019-06-07T04:16:01.142Z,1460.00
2019-06-07T04:17:01.205Z,1496.00
2019-06-07T04:18:03.762Z,1536.00
2019-06-07T04:19:01.120Z,1584.00
2019-06-07T04:20:01.160Z,1636.00
2019-06-07T04:21:01.087Z,1680.00
2019-06-07T04:22:01.070Z,1728.00
2019-06-07T04:23:01.060Z,1752.00
2019-06-07T04:24:01.051Z,1776.00
2019-06-07T04:25:01.068Z,1848.00
2019-06-07T04:26:01.030Z,1932.00
2019-06-07T04:27:01.021Z,2028.00
2019-06-07T04:28:01.009Z,2152.00
2019-06-07T04:29:32.512Z,2272.00
2019-06-07T04:30:07.083Z,2404.00
2019-06-07T04:31:01.971Z,2500.00
2019-06-07T04:32:00.959Z,2584.00
2019-06-07T04:33:00.949Z,2660.00
2019-06-07T04:34:00.950Z,2760.00
2019-06-07T04:35:00.950Z,2788.00
2019-06-07T04:36:00.925Z,2804.00
2019-06-07T04:37:00.909Z,2784.00
2019-06-07T04:38:00.900Z,2760.00
2019-06-07T04:39:00.882Z,2720.00
2019-06-07T04:40:00.899Z,2708.00
2019-06-07T04:41:00.870Z,2700.00
2019-06-07T04:42:00.866Z,2716.00
2019-06-07T04:43:00.839Z,2724.00
2019-06-07T04:44:00.830Z,2716.00
2019-06-07T04:45:00.841Z,2680.00
2019-06-07T04:46:00.822Z,2652.00
2019-06-07T04:47:00.799Z,2632.00
2019-06-07T04:48:00.781Z,2640.00
2019-06-07T04:49:00.770Z,2660.00
2019-06-07T04:50:00.791Z,2684.00
2019-06-07T04:51:00.817Z,2712.00
2019-06-07T04:52:00.747Z,2748.00
2019-06-07T04:53:00.744Z,2776.00
2019-06-07T04:54:00.719Z,2808.00
2019-06-07T04:55:00.810Z,2848.00
2019-06-07T04:56:00.698Z,2860.00
2019-06-07T04:57:00.698Z,2884.00
2019-06-07T04:58:00.720Z,2928.00
2019-06-07T04:59:00.666Z,2984.00
2019-06-07T05:00:22.164Z,3052.00
2019-06-07T05:01:03.635Z,3064.00
2019-06-07T05:02:00.660Z,3096.00
2019-06-07T05:03:00.630Z,3132.00
2019-06-07T05:04:00.636Z,3120.00
2019-06-07T05:05:00.609Z,3092.00
2019-06-07T05:06:00.682Z,3076.00
2019-06-07T05:07:00.586Z,3088.00
2019-06-07T05:08:07.256Z,3100.00
2019-06-07T05:09:01.592Z,3112.00
2019-06-07T05:10:00.590Z,3124.00
2019-06-07T05:11:00.550Z,3124.00
2019-06-07T05:12:00.540Z,3140.00
2019-06-07T05:13:00.523Z,3164.00
2019-06-07T05:14:00.500Z,3168.00
2019-06-07T05:15:00.520Z,3176.00
2019-06-07T05:16:00.496Z,3196.00
2019-06-07T05:17:00.471Z,3240.00
2019-06-07T05:18:00.459Z,3260.00
2019-06-07T05:19:00.449Z,3276.00
2019-06-07T05:20:00.450Z,3312.00
2019-06-07T05:21:00.496Z,3324.00
2019-06-07T05:22:57.220Z,3380.00
2019-06-07T05:24:06.681Z,3408.00
2019-06-07T05:24:58.200Z,3420.00
2019-06-07T05:25:57.201Z,3456.00
2019-06-07T05:26:57.172Z,3468.00
2019-06-07T05:27:57.170Z,3504.00
2019-06-07T05:28:57.150Z,3548.00
2019-06-07T05:30:13.268Z,3588.00
2019-06-07T05:31:04.367Z,3640.00
2019-06-07T05:31:58.128Z,3676.00
2019-06-07T05:32:57.100Z,3696.00
2019-06-07T05:33:57.110Z,3716.00
2019-06-07T05:34:57.129Z,3748.00
2019-06-07T05:35:57.111Z,3768.00
2019-06-07T05:37:11.006Z,3764.00
2019-06-07T05:37:58.050Z,3800.00
2019-06-07T05:38:57.053Z,3860.00
2019-06-07T05:39:57.053Z,3872.00
2019-06-07T05:40:57.053Z,3896.00
2019-06-07T05:41:57.000Z,3908.00
2019-06-07T05:42:56.992Z,3944.00
2019-06-07T05:44:12.098Z,3984.00
2019-06-07T05:44:57.976Z,4004.00
2019-06-07T05:45:56.983Z,4000.00
2019-06-07T05:46:56.978Z,4044.00
2019-06-07T05:47:56.941Z,4052.00
2019-06-07T05:48:56.968Z,4076.00
2019-06-07T05:49:56.972Z,4108.00
2019-06-07T05:50:57.728Z,4208.00
2019-06-07T05:51:56.912Z,4304.00
2019-06-07T05:52:56.880Z,4444.00
2019-06-07T05:53:56.876Z,4540.00
2019-06-07T05:54:56.881Z,4636.00
2019-06-07T05:55:56.857Z,4824.00
2019-06-07T05:56:56.859Z,5020.00
2019-06-07T05:57:56.829Z,5216.00
2019-06-07T05:58:56.819Z,5432.00
2019-06-07T05:59:56.833Z,5636.00
2019-06-07T06:01:41.093Z,5736.00
2019-06-07T06:02:07.983Z,5852.00
2019-06-07T06:03:05.385Z,5920.00
2019-06-07T06:03:57.788Z,5992.00
2019-06-07T06:04:56.816Z,5992.00
2019-06-07T06:05:56.744Z,5956.00
2019-06-07T06:06:56.749Z,5940.00
2019-06-07T06:07:56.733Z,5960.00
2019-06-07T06:09:12.814Z,5968.00
2019-06-07T06:09:57.702Z,5960.00
2019-06-07T06:10:56.704Z,5908.00
2019-06-07T06:12:02.338Z,5900.00
2019-06-07T06:12:57.671Z,5784.00
2019-06-07T06:14:06.468Z,5604.00
2019-06-07T06:14:57.639Z,5504.00
2019-06-07T06:16:02.035Z,5516.00
2019-06-07T06:16:57.640Z,5664.00
2019-06-07T06:17:57.036Z,5780.00
2019-06-07T06:18:56.589Z,5716.00
2019-06-07T06:19:56.580Z,5588.00
2019-06-07T06:21:19.191Z,5988.00
2019-06-07T06:21:57.572Z,6804.00
2019-06-07T06:22:56.559Z,5904.00
2019-06-07T06:23:56.543Z,5120.00
2019-06-07T06:25:58.454Z,4760.00
2019-06-07T06:27:14.852Z,4620.00
2019-06-07T06:28:09.924Z,4552.00
2019-06-07T06:28:57.479Z,4468.00
2019-06-07T06:29:56.498Z,4340.00
2019-06-07T06:30:56.460Z,4264.00
2019-06-07T06:32:40.436Z,4208.00
2019-06-07T06:32:58.702Z,4192.00
2019-06-07T06:33:56.430Z,4196.00
2019-06-07T06:34:56.438Z,4168.00
2019-06-07T06:35:56.419Z,4152.00
2019-06-07T06:36:56.405Z,4152.00
2019-06-07T06:37:56.420Z,4152.00
2019-06-07T06:38:56.369Z,4152.00
2019-06-07T06:39:56.363Z,4160.00
2019-06-07T06:41:14.599Z,4156.00
2019-06-07T06:42:03.512Z,4164.00
2019-06-07T06:42:57.339Z,4144.00
2019-06-07T06:43:56.320Z,4140.00
2019-06-07T06:44:56.305Z,4148.00
2019-06-07T06:45:56.304Z,4128.00
2019-06-07T06:46:58.338Z,4112.00
2019-06-07T06:47:56.291Z,4120.00
2019-06-07T06:48:56.250Z,4124.00
2019-06-07T06:49:56.241Z,4128.00
2019-06-07T06:50:56.235Z,4120.00
2019-06-07T06:51:56.221Z,4136.00
2019-06-07T06:52:56.241Z,4136.00
2019-06-07T06:53:56.202Z,4148.00
2019-06-07T06:55:00.967Z,4104.00
2019-06-07T06:55:57.192Z,4108.00
2019-06-07T06:57:17.881Z,4136.00
2019-06-07T06:57:57.181Z,4120.00
2019-06-07T06:59:57.132Z,4156.00
2019-06-07T07:01:05.935Z,4164.00
2019-06-07T07:01:57.110Z,4172.00
2019-06-07T07:03:41.901Z,4196.00
2019-06-07T07:04:10.488Z,4188.00
2019-06-07T07:04:57.094Z,4188.00
2019-06-07T07:05:56.066Z,4168.00
2019-06-07T07:06:56.059Z,4140.00
2019-06-07T07:07:56.072Z,4148.00
2019-06-07T07:08:56.036Z,4152.00
2019-06-07T07:09:59.271Z,4176.00
2019-06-07T07:10:56.028Z,4176.00
2019-06-07T07:12:11.177Z,4184.00
2019-06-07T07:12:57.000Z,4160.00
2019-06-07T07:13:57.083Z,4140.00
2019-06-07T07:14:56.340Z,4148.00
2019-06-07T07:15:58.409Z,4124.00
2019-06-07T07:16:56.656Z,4096.00
2019-06-07T07:18:07.782Z,4088.00
2019-06-07T07:18:56.942Z,4068.00
2019-06-07T07:19:55.931Z,4060.00
2019-06-07T07:20:57.541Z,4044.00
2019-06-07T07:21:55.893Z,4044.00
2019-06-07T07:22:57.193Z,4044.00
2019-06-07T07:24:19.247Z,4052.00
2019-06-07T07:24:56.861Z,4068.00
2019-06-07T07:25:59.655Z,4096.00
2019-06-07T07:26:58.325Z,4052.00
2019-06-07T07:27:55.831Z,4020.00
2019-06-07T07:28:57.813Z,3996.00
2019-06-07T07:30:30.047Z,4000.00
2019-06-07T07:30:57.285Z,3992.00
2019-06-07T07:31:56.554Z,3964.00
2019-06-07T07:32:59.319Z,3948.00
2019-06-07T07:35:00.569Z,3884.00
2019-06-07T07:36:35.185Z,3864.00
2019-06-07T07:36:59.668Z,3896.00
2019-06-07T07:37:59.543Z,3912.00
2019-06-07T07:39:04.122Z,3912.00
2019-06-07T07:40:01.730Z,3896.00
2019-06-07T07:41:07.720Z,3904.00
2019-06-07T07:42:17.902Z,3892.00
2019-06-07T07:42:56.878Z,3868.00
2019-06-07T07:44:05.502Z,3864.00
2019-06-07T07:44:56.916Z,3840.00
2019-06-07T07:46:02.041Z,3816.00
2019-06-07T07:46:56.621Z,3792.00
2019-06-07T07:48:08.275Z,3768.00
2019-06-07T07:48:56.611Z,3784.00
2019-06-07T07:49:58.618Z,3812.00
2019-06-07T07:51:00.278Z,3832.00
2019-06-07T07:51:58.914Z,3800.00
2019-06-07T07:53:00.315Z,3788.00
2019-06-07T07:54:09.622Z,3792.00
2019-06-07T07:54:58.349Z,3796.00
2019-06-07T07:55:59.946Z,3776.00
2019-06-07T07:56:57.420Z,3752.00
2019-06-07T07:58:01.186Z,3752.00
2019-06-07T07:59:01.758Z,3748.00
2019-06-07T08:00:13.233Z,3748.00
2019-06-07T08:01:07.817Z,3740.00
2019-06-07T08:01:56.441Z,3752.00
2019-06-07T08:02:58.633Z,3736.00
2019-06-07T08:03:57.025Z,3736.00
2019-06-07T08:05:58.893Z,3744.00
2019-06-07T08:06:56.117Z,3748.00
2019-06-07T08:08:00.220Z,3736.00
2019-06-07T08:08:57.109Z,3728.00
2019-06-07T08:09:59.966Z,3728.00
2019-06-07T08:10:59.343Z,3732.00
2019-06-07T08:12:01.840Z,3764.00
2019-06-07T08:13:22.744Z,3768.00
2019-06-07T08:13:58.513Z,3736.00
2019-06-07T08:14:58.610Z,3712.00
2019-06-07T08:15:59.390Z,3720.00
2019-06-07T08:16:57.864Z,3724.00
2019-06-07T08:18:00.162Z,3716.00
2019-06-07T08:18:58.571Z,3708.00
2019-06-07T08:19:57.550Z,3704.00
2019-06-07T08:21:17.248Z,3684.00
2019-06-07T08:21:56.221Z,3652.00
2019-06-07T08:22:59.137Z,3660.00
2019-06-07T08:24:00.598Z,3676.00
2019-06-07T08:24:59.851Z,3672.00
2019-06-07T08:26:00.631Z,3664.00
2019-06-07T08:27:17.864Z,3640.00
2019-06-07T08:27:58.610Z,3644.00
2019-06-07T08:28:58.887Z,3644.00
2019-06-07T08:30:25.350Z,3632.00
2019-06-07T08:31:04.345Z,3624.00
2019-06-07T08:31:58.191Z,3608.00
2019-06-07T08:33:01.574Z,3584.00
2019-06-07T08:33:58.383Z,3568.00
2019-06-07T08:35:01.701Z,3564.00
2019-06-07T08:36:14.026Z,3564.00
2019-06-07T08:36:59.139Z,3536.00
2019-06-07T08:38:22.048Z,3544.00
2019-06-07T08:39:02.986Z,3556.00
2019-06-07T08:39:58.600Z,3556.00
2019-06-07T08:41:04.367Z,3552.00
2019-06-07T08:42:13.787Z,3540.00
2019-06-07T08:43:18.363Z,3552.00
2019-06-07T08:43:58.454Z,3544.00
2019-06-07T08:45:01.561Z,3552.00
2019-06-07T08:46:03.823Z,3540.00
2019-06-07T08:47:16.045Z,3528.00
2019-06-07T08:47:59.378Z,3524.00
2019-06-07T08:48:58.987Z,3532.00
2019-06-07T08:49:59.583Z,3524.00
2019-06-07T08:51:00.741Z,3516.00
2019-06-07T08:52:03.035Z,3504.00
2019-06-07T08:53:02.936Z,3504.00
2019-06-07T08:54:18.869Z,3480.00
2019-06-07T08:54:57.831Z,3504.00
2019-06-07T08:56:00.911Z,3504.00
2019-06-07T08:57:16.768Z,3504.00
2019-06-07T08:58:02.407Z,3476.00
2019-06-07T08:59:00.430Z,3452.00
2019-06-07T08:59:59.047Z,3448.00
2019-06-07T09:00:59.391Z,3444.00
2019-06-07T09:01:59.775Z,3444.00
2019-06-07T09:03:00.927Z,3444.00
2019-06-07T09:04:02.609Z,3468.00
2019-06-07T09:04:58.592Z,3448.00
2019-06-07T09:05:57.090Z,3432.00
2019-06-07T09:07:07.465Z,3432.00
2019-06-07T09:08:21.814Z,3456.00
2019-06-07T09:08:58.124Z,3452.00
2019-06-07T09:10:01.842Z,3440.00
2019-06-07T09:10:57.023Z,3424.00
2019-06-07T09:11:56.503Z,3412.00
2019-06-07T09:13:02.997Z,3384.00
2019-06-07T09:13:57.727Z,3368.00
2019-06-07T09:15:06.759Z,3364.00
2019-06-07T09:16:00.755Z,3364.00
2019-06-07T09:17:01.258Z,3336.00
2019-06-07T09:18:34.763Z,3324.00
2019-06-07T09:18:58.386Z,3332.00
2019-06-07T09:19:56.229Z,3328.00
2019-06-07T09:20:55.644Z,3352.00
2019-06-07T09:21:54.679Z,3356.00
2019-06-07T09:22:58.956Z,3360.00
2019-06-07T09:23:57.201Z,3312.00
2019-06-07T09:25:00.233Z,3316.00
2019-06-07T09:26:05.279Z,3308.00
2019-06-07T09:26:55.932Z,3320.00
2019-06-07T09:28:00.660Z,3308.00
2019-06-07T09:28:56.197Z,3320.00
2019-06-07T09:30:00.666Z,3308.00
2019-06-07T09:30:55.860Z,3276.00
2019-06-07T09:31:55.935Z,3264.00
2019-06-07T09:32:55.618Z,3248.00
2019-06-07T09:33:54.480Z,3244.00
2019-06-07T09:34:54.406Z,3252.00
2019-06-07T09:35:54.397Z,3244.00
2019-06-07T09:36:54.610Z,3220.00
2019-06-07T09:38:07.638Z,3200.00
2019-06-07T09:38:57.089Z,3212.00
2019-06-07T09:39:54.365Z,3236.00
2019-06-07T09:40:54.347Z,3260.00
2019-06-07T09:41:56.504Z,3252.00
2019-06-07T09:43:38.563Z,3256.00
2019-06-07T09:44:04.784Z,3248.00
2019-06-07T09:44:57.007Z,3248.00
2019-06-07T09:45:56.662Z,3232.00
2019-06-07T09:47:14.213Z,3224.00
2019-06-07T09:47:57.044Z,3216.00
2019-06-07T09:49:14.220Z,3232.00
2019-06-07T09:49:58.623Z,3252.00
2019-06-07T09:50:54.235Z,3220.00
2019-06-07T09:51:54.248Z,3224.00
2019-06-07T09:52:58.380Z,3204.00
2019-06-07T09:53:56.160Z,3180.00
2019-06-07T09:55:23.163Z,3172.00
2019-06-07T09:55:56.839Z,3164.00
2019-06-07T09:56:54.198Z,3168.00
2019-06-07T09:57:54.156Z,3160.00
2019-06-07T09:58:54.535Z,3164.00
2019-06-07T09:59:54.149Z,3152.00
2019-06-07T10:00:54.126Z,3136.00
2019-06-07T10:01:54.147Z,3136.00
2019-06-07T10:02:54.111Z,3148.00
2019-06-07T10:03:54.110Z,3156.00
2019-06-07T10:04:54.111Z,3176.00
2019-06-07T10:05:54.069Z,3168.00
2019-06-07T10:06:54.076Z,3148.00
2019-06-07T10:08:04.093Z,3116.00
2019-06-07T10:10:17.322Z,3060.00
2019-06-07T10:10:55.023Z,3088.00
2019-06-07T10:11:54.026Z,3104.00
2019-06-07T10:12:54.024Z,3108.00
2019-06-07T10:13:53.989Z,3100.00
2019-06-07T10:14:54.002Z,3076.00
2019-06-07T10:15:53.969Z,3060.00
2019-06-07T10:16:53.979Z,3044.00
2019-06-07T10:17:53.939Z,3020.00
2019-06-07T10:18:53.939Z,3024.00
2019-06-07T10:19:53.918Z,3040.00
2019-06-07T10:20:53.904Z,3016.00
2019-06-07T10:21:53.930Z,3028.00
2019-06-07T10:22:53.890Z,3028.00
2019-06-07T10:23:53.883Z,3028.00
2019-06-07T10:24:53.862Z,3016.00
2019-06-07T10:25:53.840Z,3004.00
2019-06-07T10:26:53.870Z,2992.00
2019-06-07T10:27:53.861Z,2980.00
2019-06-07T10:28:53.825Z,2976.00
2019-06-07T10:29:53.809Z,2980.00
2019-06-07T10:30:53.900Z,2968.00
2019-06-07T10:31:53.861Z,2948.00
2019-06-07T10:32:53.815Z,2932.00
2019-06-07T10:33:53.779Z,2936.00
2019-06-07T10:34:53.793Z,2952.00
2019-06-07T10:35:53.770Z,2960.00
2019-06-07T10:36:53.755Z,2960.00
2019-06-07T10:37:53.741Z,2956.00
2019-06-07T10:38:53.722Z,2960.00
2019-06-07T10:39:53.713Z,2964.00
2019-06-07T10:40:53.683Z,2968.00
2019-06-07T10:41:54.208Z,2972.00
2019-06-07T10:42:54.221Z,3000.00
2019-06-07T10:43:53.650Z,2996.00
2019-06-07T10:44:53.651Z,2996.00
2019-06-07T10:45:53.634Z,3000.00
2019-06-07T10:46:53.621Z,2984.00
2019-06-07T10:47:53.664Z,2976.00
2019-06-07T10:48:53.619Z,3000.00
2019-06-07T10:49:53.582Z,3024.00
2019-06-07T10:50:53.602Z,3048.00
2019-06-07T10:51:53.562Z,3056.00
2019-06-07T10:52:53.567Z,3048.00
2019-06-07T10:53:53.543Z,3052.00
2019-06-07T10:54:53.532Z,3036.00
2019-06-07T10:55:53.523Z,3032.00
2019-06-07T10:56:53.526Z,3032.00
2019-06-07T10:57:53.532Z,3036.00
2019-06-07T10:58:53.552Z,3048.00
2019-06-07T10:59:53.473Z,3068.00
2019-06-07T11:00:53.461Z,3068.00
2019-06-07T11:01:53.453Z,3092.00
2019-06-07T11:02:55.244Z,3084.00
2019-06-07T11:03:53.442Z,3064.00
2019-06-07T11:04:53.530Z,3028.00
2019-06-07T11:05:53.403Z,3008.00
2019-06-07T11:06:53.393Z,3032.00
2019-06-07T11:07:53.461Z,3024.00
2019-06-07T11:08:53.383Z,3008.00
2019-06-07T11:10:06.472Z,3016.00
2019-06-07T11:10:54.646Z,3020.00
2019-06-07T11:11:53.345Z,3012.00
2019-06-07T11:12:53.355Z,3020.00
2019-06-07T11:13:53.331Z,3016.00
2019-06-07T11:14:53.312Z,3008.00
2019-06-07T11:15:53.312Z,3012.00
2019-06-07T11:16:53.294Z,3032.00
2019-06-07T11:17:53.304Z,3024.00
2019-06-07T11:18:53.284Z,3052.00
2019-06-07T11:19:53.266Z,3088.00
2019-06-07T11:20:53.245Z,3068.00
2019-06-07T11:21:53.235Z,3080.00
2019-06-07T11:23:00.263Z,3076.00
2019-06-07T11:23:53.244Z,3048.00
2019-06-07T11:24:53.217Z,3020.00
2019-06-07T11:25:53.195Z,2992.00
2019-06-07T11:26:53.185Z,2972.00
2019-06-07T11:27:53.164Z,2968.00
2019-06-07T11:28:53.198Z,2976.00
2019-06-07T11:29:53.146Z,2988.00
2019-06-07T11:30:53.133Z,2996.00
2019-06-07T11:31:53.129Z,2988.00
2019-06-07T11:32:53.125Z,2988.00
2019-06-07T11:33:53.145Z,2980.00
2019-06-07T11:34:53.095Z,2980.00
2019-06-07T11:35:53.095Z,2992.00
2019-06-07T11:36:53.118Z,3008.00
2019-06-07T11:37:53.084Z,3032.00
2019-06-07T11:38:53.241Z,3044.00
2019-06-07T11:39:53.034Z,3036.00
2019-06-07T11:40:53.067Z,3044.00
2019-06-07T11:41:53.024Z,3020.00
2019-06-07T11:42:53.060Z,3020.00
2019-06-07T11:43:53.115Z,3000.00
2019-06-07T11:44:56.730Z,2992.00
2019-06-07T11:45:52.973Z,2992.00
2019-06-07T11:46:53.028Z,2996.00
2019-06-07T11:47:52.955Z,3008.00
2019-06-07T11:48:52.955Z,3016.00
2019-06-07T11:49:52.926Z,3028.00
2019-06-07T11:50:52.916Z,3036.00
2019-06-07T11:51:52.915Z,3032.00
2019-06-07T11:52:52.900Z,3016.00
2019-06-07T11:53:52.896Z,2996.00
2019-06-07T11:54:52.897Z,2984.00
2019-06-07T11:55:52.876Z,2968.00
2019-06-07T11:56:52.856Z,2940.00
2019-06-07T11:57:52.867Z,2908.00
2019-06-07T11:58:52.845Z,2896.00
2019-06-07T11:59:52.830Z,2896.00
2019-06-07T12:00:52.818Z,2912.00
2019-06-07T12:01:52.789Z,2912.00
2019-06-07T12:02:52.811Z,2912.00
2019-06-07T12:03:52.778Z,2924.00
2019-06-07T12:04:52.789Z,2928.00
2019-06-07T12:05:52.796Z,2948.00
2019-06-07T12:06:52.737Z,2952.00
2019-06-07T12:07:52.820Z,2964.00
2019-06-07T12:08:52.737Z,2960.00
2019-06-07T12:09:56.552Z,2944.00
2019-06-07T12:10:52.768Z,2936.00
2019-06-07T12:11:52.683Z,2920.00
2019-06-07T12:12:52.677Z,2920.00
2019-06-07T12:13:52.659Z,2920.00
2019-06-07T12:14:52.672Z,2936.00
2019-06-07T12:15:52.657Z,2948.00
2019-06-07T12:16:52.636Z,2936.00
2019-06-07T12:17:52.617Z,2948.00
2019-06-07T12:18:52.614Z,2960.00
2019-06-07T12:19:52.611Z,2956.00
2019-06-07T12:20:52.588Z,2972.00
2019-06-07T12:21:52.577Z,2984.00
2019-06-07T12:22:52.586Z,2996.00
2019-06-07T12:23:52.550Z,3016.00
2019-06-07T12:24:52.559Z,3024.00
2019-06-07T12:25:52.539Z,3016.00
2019-06-07T12:26:52.549Z,3008.00
2019-06-07T12:27:52.517Z,3012.00
2019-06-07T12:28:52.531Z,3008.00
2019-06-07T12:29:52.510Z,3004.00
2019-06-07T12:30:55.144Z,3016.00
2019-06-07T12:31:52.480Z,3044.00